sensor_id;sensor_type;location;lat;lon;timestamp;P1;durP1;ratioP1;P2;durP2;ratioP2
72325;SDS011;60278;47.980;18.780;2023-11-21T00:02:23;17.17;;;8.82;;
72325;SDS011;60278;47.980;18.780;2023-11-21T00:05:26;16.27;;;9.38;;
72325;SDS011;60278;47.980;18.780;2023-11-21T00:08:28;17.70;;;8.57;;
72325;SDS011;60278;47.980;18.780;2023-11-21T00:11:30;17.20;;;10.03;;
72325;SDS011;60278;47.980;18.780;2023-11-21T00:14:32;20.02;;;10.00;;
72325;SDS011;60278;47.980;18.780;2023-11-21T00:17:35;17.58;;;9.90;;
72325;SDS011;60278;47.980;18.780;2023-11-21T00:20:37;16.38;;;9.85;;
72325;SDS011;60278;47.980;18.780;2023-11-21T00:23:39;18.83;;;9.87;;
72325;SDS011;60278;47.980;18.780;2023-11-21T00:26:41;20.50;;;11.17;;
72325;SDS011;60278;47.980;18.780;2023-11-21T00:29:43;18.52;;;13.27;;
72325;SDS011;60278;47.980;18.780;2023-11-21T00:32:46;15.50;;;9.50;;
72325;SDS011;60278;47.980;18.780;2023-11-21T00:35:48;14.52;;;8.20;;
72325;SDS011;60278;47.980;18.780;2023-11-21T00:38:50;17.03;;;8.80;;
72325;SDS011;60278;47.980;18.780;2023-11-21T00:41:53;21.00;;;10.50;;
72325;SDS011;60278;47.980;18.780;2023-11-21T00:44:55;14.15;;;8.18;;
72325;SDS011;60278;47.980;18.780;2023-11-21T00:47:57;12.93;;;8.23;;
72325;SDS011;60278;47.980;18.780;2023-11-21T00:51:01;15.30;;;8.75;;
72325;SDS011;60278;47.980;18.780;2023-11-21T00:54:03;18.30;;;8.77;;
72325;SDS011;60278;47.980;18.780;2023-11-21T00:57:05;16.70;;;8.93;;
72325;SDS011;60278;47.980;18.780;2023-11-21T01:00:07;15.82;;;8.00;;
72325;SDS011;60278;47.980;18.780;2023-11-21T01:03:15;16.85;;;8.20;;
72325;SDS011;60278;47.980;18.780;2023-11-21T01:06:18;14.05;;;8.20;;
72325;SDS011;60278;47.980;18.780;2023-11-21T01:09:22;15.87;;;8.93;;
72325;SDS011;60278;47.980;18.780;2023-11-21T01:12:25;18.10;;;9.80;;
72325;SDS011;60278;47.980;18.780;2023-11-21T01:15:29;16.58;;;8.68;;
72325;SDS011;60278;47.980;18.780;2023-11-21T01:18:31;13.65;;;8.10;;
72325;SDS011;60278;47.980;18.780;2023-11-21T01:21:33;14.02;;;8.48;;
72325;SDS011;60278;47.980;18.780;2023-11-21T01:24:36;16.77;;;8.10;;
72325;SDS011;60278;47.980;18.780;2023-11-21T01:27:38;15.40;;;8.50;;
72325;SDS011;60278;47.980;18.780;2023-11-21T01:30:41;18.27;;;9.88;;
72325;SDS011;60278;47.980;18.780;2023-11-21T01:33:43;16.48;;;8.48;;
72325;SDS011;60278;47.980;18.780;2023-11-21T01:36:46;13.80;;;8.40;;
72325;SDS011;60278;47.980;18.780;2023-11-21T01:39:48;17.43;;;8.70;;
72325;SDS011;60278;47.980;18.780;2023-11-21T01:42:50;17.47;;;7.93;;
72325;SDS011;60278;47.980;18.780;2023-11-21T01:45:56;17.40;;;8.63;;
72325;SDS011;60278;47.980;18.780;2023-11-21T01:48:58;13.32;;;8.18;;
72325;SDS011;60278;47.980;18.780;2023-11-21T01:52:01;14.52;;;8.18;;
72325;SDS011;60278;47.980;18.780;2023-11-21T01:55:03;13.50;;;6.83;;
72325;SDS011;60278;47.980;18.780;2023-11-21T01:58:07;13.00;;;7.20;;
72325;SDS011;60278;47.980;18.780;2023-11-21T02:01:10;11.80;;;6.70;;
72325;SDS011;60278;47.980;18.780;2023-11-21T02:04:13;11.18;;;6.55;;
72325;SDS011;60278;47.980;18.780;2023-11-21T02:07:15;11.52;;;6.72;;
72325;SDS011;60278;47.980;18.780;2023-11-21T02:10:18;13.40;;;6.83;;
72325;SDS011;60278;47.980;18.780;2023-11-21T02:13:25;13.37;;;7.00;;
72325;SDS011;60278;47.980;18.780;2023-11-21T02:16:27;12.02;;;7.03;;
72325;SDS011;60278;47.980;18.780;2023-11-21T02:19:29;13.15;;;7.50;;
72325;SDS011;60278;47.980;18.780;2023-11-21T02:22:32;15.18;;;7.75;;
72325;SDS011;60278;47.980;18.780;2023-11-21T02:25:37;12.67;;;7.77;;
72325;SDS011;60278;47.980;18.780;2023-11-21T02:28:40;13.53;;;6.80;;
72325;SDS011;60278;47.980;18.780;2023-11-21T02:31:42;10.95;;;7.18;;
72325;SDS011;60278;47.980;18.780;2023-11-21T02:34:50;10.52;;;6.60;;
72325;SDS011;60278;47.980;18.780;2023-11-21T02:37:52;13.07;;;7.80;;
72325;SDS011;60278;47.980;18.780;2023-11-21T02:40:56;10.63;;;7.30;;
72325;SDS011;60278;47.980;18.780;2023-11-21T02:43:59;12.27;;;7.40;;
72325;SDS011;60278;47.980;18.780;2023-11-21T02:47:01;14.10;;;7.93;;
72325;SDS011;60278;47.980;18.780;2023-11-21T02:50:03;13.98;;;8.00;;
72325;SDS011;60278;47.980;18.780;2023-11-21T02:53:06;15.52;;;8.18;;
72325;SDS011;60278;47.980;18.780;2023-11-21T02:56:08;11.90;;;8.70;;
72325;SDS011;60278;47.980;18.780;2023-11-21T02:59:10;18.97;;;9.30;;
72325;SDS011;60278;47.980;18.780;2023-11-21T03:02:12;17.27;;;9.57;;
72325;SDS011;60278;47.980;18.780;2023-11-21T03:05:14;19.13;;;9.50;;
72325;SDS011;60278;47.980;18.780;2023-11-21T03:08:16;14.90;;;10.10;;
72325;SDS011;60278;47.980;18.780;2023-11-21T03:11:18;15.97;;;10.03;;
72325;SDS011;60278;47.980;18.780;2023-11-21T03:14:20;17.93;;;10.77;;
72325;SDS011;60278;47.980;18.780;2023-11-21T03:17:22;17.40;;;10.13;;
72325;SDS011;60278;47.980;18.780;2023-11-21T03:20:26;18.88;;;11.02;;
72325;SDS011;60278;47.980;18.780;2023-11-21T03:23:28;19.30;;;10.23;;
72325;SDS011;60278;47.980;18.780;2023-11-21T03:26:30;15.93;;;8.47;;
72325;SDS011;60278;47.980;18.780;2023-11-21T03:29:32;15.93;;;8.47;;
72325;SDS011;60278;47.980;18.780;2023-11-21T03:32:34;15.32;;;8.60;;
72325;SDS011;60278;47.980;18.780;2023-11-21T03:35:37;14.98;;;7.88;;
72325;SDS011;60278;47.980;18.780;2023-11-21T03:38:39;13.70;;;7.47;;
72325;SDS011;60278;47.980;18.780;2023-11-21T03:41:41;13.23;;;7.23;;
72325;SDS011;60278;47.980;18.780;2023-11-21T03:44:43;28.30;;;13.97;;
72325;SDS011;60278;47.980;18.780;2023-11-21T03:47:46;15.30;;;8.93;;
72325;SDS011;60278;47.980;18.780;2023-11-21T03:50:48;38.50;;;17.17;;
72325;SDS011;60278;47.980;18.780;2023-11-21T03:53:50;267.02;;;108.45;;
72325;SDS011;60278;47.980;18.780;2023-11-21T03:56:52;296.10;;;166.87;;
72325;SDS011;60278;47.980;18.780;2023-11-21T03:59:55;132.67;;;88.13;;
72325;SDS011;60278;47.980;18.780;2023-11-21T04:02:57;46.75;;;33.33;;
72325;SDS011;60278;47.980;18.780;2023-11-21T04:06:00;59.90;;;41.50;;
72325;SDS011;60278;47.980;18.780;2023-11-21T04:09:03;21.40;;;15.07;;
72325;SDS011;60278;47.980;18.780;2023-11-21T04:12:06;19.03;;;11.57;;
72325;SDS011;60278;47.980;18.780;2023-11-21T04:15:10;12.73;;;9.10;;
72325;SDS011;60278;47.980;18.780;2023-11-21T04:18:12;16.38;;;9.32;;
72325;SDS011;60278;47.980;18.780;2023-11-21T04:21:14;15.40;;;8.65;;
72325;SDS011;60278;47.980;18.780;2023-11-21T04:24:17;15.02;;;8.60;;
72325;SDS011;60278;47.980;18.780;2023-11-21T04:27:19;15.53;;;8.73;;
72325;SDS011;60278;47.980;18.780;2023-11-21T04:30:21;14.00;;;9.50;;
72325;SDS011;60278;47.980;18.780;2023-11-21T04:33:23;15.10;;;8.75;;
72325;SDS011;60278;47.980;18.780;2023-11-21T04:36:25;13.40;;;7.53;;
72325;SDS011;60278;47.980;18.780;2023-11-21T04:39:27;15.35;;;7.97;;
72325;SDS011;60278;47.980;18.780;2023-11-21T04:42:29;14.37;;;8.23;;
72325;SDS011;60278;47.980;18.780;2023-11-21T04:45:32;16.23;;;8.63;;
72325;SDS011;60278;47.980;18.780;2023-11-21T04:48:34;14.13;;;8.98;;
72325;SDS011;60278;47.980;18.780;2023-11-21T04:51:36;13.35;;;8.45;;
72325;SDS011;60278;47.980;18.780;2023-11-21T04:54:38;23.48;;;15.13;;
72325;SDS011;60278;47.980;18.780;2023-11-21T04:57:41;32.37;;;16.00;;
72325;SDS011;60278;47.980;18.780;2023-11-21T05:00:43;13.50;;;7.67;;
72325;SDS011;60278;47.980;18.780;2023-11-21T05:03:45;14.52;;;8.63;;
72325;SDS011;60278;47.980;18.780;2023-11-21T05:06:49;14.63;;;7.97;;
72325;SDS011;60278;47.980;18.780;2023-11-21T05:09:51;20.48;;;15.00;;
72325;SDS011;60278;47.980;18.780;2023-11-21T05:12:53;25.63;;;15.63;;
72325;SDS011;60278;47.980;18.780;2023-11-21T05:15:55;13.87;;;8.77;;
72325;SDS011;60278;47.980;18.780;2023-11-21T05:19:00;34.60;;;20.80;;
72325;SDS011;60278;47.980;18.780;2023-11-21T05:22:03;28.70;;;18.05;;
72325;SDS011;60278;47.980;18.780;2023-11-21T05:25:05;18.65;;;9.70;;
72325;SDS011;60278;47.980;18.780;2023-11-21T05:28:08;13.20;;;7.83;;
72325;SDS011;60278;47.980;18.780;2023-11-21T05:31:11;16.10;;;7.37;;
72325;SDS011;60278;47.980;18.780;2023-11-21T05:34:17;13.55;;;8.90;;
72325;SDS011;60278;47.980;18.780;2023-11-21T05:37:20;11.20;;;8.55;;
72325;SDS011;60278;47.980;18.780;2023-11-21T05:40:22;10.77;;;7.35;;
72325;SDS011;60278;47.980;18.780;2023-11-21T05:43:24;13.47;;;8.50;;
72325;SDS011;60278;47.980;18.780;2023-11-21T05:46:26;17.07;;;8.57;;
72325;SDS011;60278;47.980;18.780;2023-11-21T05:49:29;16.13;;;8.70;;
72325;SDS011;60278;47.980;18.780;2023-11-21T05:52:31;16.00;;;8.63;;
72325;SDS011;60278;47.980;18.780;2023-11-21T05:55:34;19.65;;;9.90;;
72325;SDS011;60278;47.980;18.780;2023-11-21T05:58:36;15.20;;;8.97;;
72325;SDS011;60278;47.980;18.780;2023-11-21T06:01:38;15.67;;;9.93;;
72325;SDS011;60278;47.980;18.780;2023-11-21T06:04:41;23.92;;;11.98;;
72325;SDS011;60278;47.980;18.780;2023-11-21T06:07:43;25.45;;;14.27;;
72325;SDS011;60278;47.980;18.780;2023-11-21T06:10:45;99.57;;;49.33;;
72325;SDS011;60278;47.980;18.780;2023-11-21T06:13:51;48.60;;;23.77;;
72325;SDS011;60278;47.980;18.780;2023-11-21T06:16:56;29.47;;;15.20;;
72325;SDS011;60278;47.980;18.780;2023-11-21T06:19:59;36.35;;;17.23;;
72325;SDS011;60278;47.980;18.780;2023-11-21T06:23:02;18.85;;;11.68;;
72325;SDS011;60278;47.980;18.780;2023-11-21T06:26:05;21.05;;;14.07;;
72325;SDS011;60278;47.980;18.780;2023-11-21T06:29:08;23.13;;;14.20;;
72325;SDS011;60278;47.980;18.780;2023-11-21T06:32:10;28.83;;;17.57;;
72325;SDS011;60278;47.980;18.780;2023-11-21T06:35:12;18.80;;;11.75;;
72325;SDS011;60278;47.980;18.780;2023-11-21T06:38:15;20.45;;;11.13;;
72325;SDS011;60278;47.980;18.780;2023-11-21T06:41:17;17.27;;;9.60;;
72325;SDS011;60278;47.980;18.780;2023-11-21T06:44:19;16.30;;;8.20;;
72325;SDS011;60278;47.980;18.780;2023-11-21T06:47:21;13.13;;;9.17;;
72325;SDS011;60278;47.980;18.780;2023-11-21T06:50:24;17.20;;;10.75;;
72325;SDS011;60278;47.980;18.780;2023-11-21T06:53:26;16.33;;;10.38;;
72325;SDS011;60278;47.980;18.780;2023-11-21T06:56:28;28.20;;;14.52;;
72325;SDS011;60278;47.980;18.780;2023-11-21T06:59:30;18.40;;;11.23;;
72325;SDS011;60278;47.980;18.780;2023-11-21T07:02:32;15.37;;;10.27;;
72325;SDS011;60278;47.980;18.780;2023-11-21T07:05:34;14.43;;;8.68;;
72325;SDS011;60278;47.980;18.780;2023-11-21T07:08:37;13.52;;;8.38;;
72325;SDS011;60278;47.980;18.780;2023-11-21T07:11:39;16.30;;;9.13;;
72325;SDS011;60278;47.980;18.780;2023-11-21T07:14:44;15.90;;;10.77;;
72325;SDS011;60278;47.980;18.780;2023-11-21T07:17:46;17.53;;;10.03;;
72325;SDS011;60278;47.980;18.780;2023-11-21T07:20:50;17.42;;;9.23;;
72325;SDS011;60278;47.980;18.780;2023-11-21T07:23:53;11.80;;;7.55;;
72325;SDS011;60278;47.980;18.780;2023-11-21T07:26:55;15.00;;;9.60;;
72325;SDS011;60278;47.980;18.780;2023-11-21T07:29:58;11.87;;;9.00;;
72325;SDS011;60278;47.980;18.780;2023-11-21T07:33:00;13.43;;;7.93;;
72325;SDS011;60278;47.980;18.780;2023-11-21T07:36:02;13.32;;;8.75;;
72325;SDS011;60278;47.980;18.780;2023-11-21T07:39:04;14.25;;;8.88;;
72325;SDS011;60278;47.980;18.780;2023-11-21T07:42:08;16.92;;;10.38;;
72325;SDS011;60278;47.980;18.780;2023-11-21T07:45:11;17.10;;;9.70;;
72325;SDS011;60278;47.980;18.780;2023-11-21T07:48:13;19.90;;;8.90;;
72325;SDS011;60278;47.980;18.780;2023-11-21T07:51:15;15.30;;;8.75;;
72325;SDS011;60278;47.980;18.780;2023-11-21T07:54:17;15.38;;;9.38;;
72325;SDS011;60278;47.980;18.780;2023-11-21T07:57:20;14.60;;;9.25;;
72325;SDS011;60278;47.980;18.780;2023-11-21T08:00:22;20.30;;;9.53;;
72325;SDS011;60278;47.980;18.780;2023-11-21T08:03:24;17.43;;;9.10;;
72325;SDS011;60278;47.980;18.780;2023-11-21T08:06:29;159.32;;;51.95;;
72325;SDS011;60278;47.980;18.780;2023-11-21T08:09:31;44.13;;;19.60;;
72325;SDS011;60278;47.980;18.780;2023-11-21T08:12:33;30.52;;;13.43;;
72325;SDS011;60278;47.980;18.780;2023-11-21T08:15:35;136.63;;;51.73;;
72325;SDS011;60278;47.980;18.780;2023-11-21T08:18:38;68.63;;;27.93;;
72325;SDS011;60278;47.980;18.780;2023-11-21T08:21:42;45.45;;;22.20;;
72325;SDS011;60278;47.980;18.780;2023-11-21T08:24:44;37.25;;;19.58;;
72325;SDS011;60278;47.980;18.780;2023-11-21T08:27:46;57.55;;;25.67;;
72325;SDS011;60278;47.980;18.780;2023-11-21T08:30:48;19.70;;;11.43;;
72325;SDS011;60278;47.980;18.780;2023-11-21T08:33:50;17.83;;;11.03;;
72325;SDS011;60278;47.980;18.780;2023-11-21T08:36:52;23.38;;;10.82;;
72325;SDS011;60278;47.980;18.780;2023-11-21T08:39:54;20.45;;;10.57;;
72325;SDS011;60278;47.980;18.780;2023-11-21T08:42:57;17.85;;;9.70;;
72325;SDS011;60278;47.980;18.780;2023-11-21T08:46:00;18.27;;;9.73;;
72325;SDS011;60278;47.980;18.780;2023-11-21T08:49:02;15.20;;;9.03;;
72325;SDS011;60278;47.980;18.780;2023-11-21T08:52:04;21.63;;;11.50;;
72325;SDS011;60278;47.980;18.780;2023-11-21T08:55:07;19.52;;;10.23;;
72325;SDS011;60278;47.980;18.780;2023-11-21T08:58:09;17.20;;;9.75;;
72325;SDS011;60278;47.980;18.780;2023-11-21T09:01:11;39.20;;;18.93;;
72325;SDS011;60278;47.980;18.780;2023-11-21T09:04:14;22.03;;;11.07;;
72325;SDS011;60278;47.980;18.780;2023-11-21T09:07:16;24.98;;;13.50;;
72325;SDS011;60278;47.980;18.780;2023-11-21T09:10:18;265.05;;;106.10;;
72325;SDS011;60278;47.980;18.780;2023-11-21T09:13:21;48.20;;;23.90;;
72325;SDS011;60278;47.980;18.780;2023-11-21T09:16:25;22.90;;;10.97;;
72325;SDS011;60278;47.980;18.780;2023-11-21T09:19:27;60.60;;;29.63;;
72325;SDS011;60278;47.980;18.780;2023-11-21T09:22:29;21.63;;;12.73;;
72325;SDS011;60278;47.980;18.780;2023-11-21T09:25:33;20.30;;;11.65;;
72325;SDS011;60278;47.980;18.780;2023-11-21T09:28:35;33.90;;;21.92;;
72325;SDS011;60278;47.980;18.780;2023-11-21T09:31:39;15.23;;;11.03;;
72325;SDS011;60278;47.980;18.780;2023-11-21T09:34:42;17.90;;;11.67;;
72325;SDS011;60278;47.980;18.780;2023-11-21T09:37:44;18.33;;;10.10;;
72325;SDS011;60278;47.980;18.780;2023-11-21T09:40:50;16.42;;;9.43;;
72325;SDS011;60278;47.980;18.780;2023-11-21T09:43:54;18.85;;;8.77;;
72325;SDS011;60278;47.980;18.780;2023-11-21T09:46:59;14.53;;;8.77;;
72325;SDS011;60278;47.980;18.780;2023-11-21T09:50:01;17.20;;;9.87;;
72325;SDS011;60278;47.980;18.780;2023-11-21T09:53:13;19.80;;;10.55;;
72325;SDS011;60278;47.980;18.780;2023-11-21T09:56:20;32.15;;;15.60;;
72325;SDS011;60278;47.980;18.780;2023-11-21T09:59:26;24.38;;;13.48;;
72325;SDS011;60278;47.980;18.780;2023-11-21T10:02:31;79.93;;;35.13;;
72325;SDS011;60278;47.980;18.780;2023-11-21T10:05:38;54.87;;;24.83;;
72325;SDS011;60278;47.980;18.780;2023-11-21T10:08:41;37.88;;;19.65;;
72325;SDS011;60278;47.980;18.780;2023-11-21T10:11:54;32.60;;;15.80;;
72325;SDS011;60278;47.980;18.780;2023-11-21T10:14:58;17.60;;;11.07;;
72325;SDS011;60278;47.980;18.780;2023-11-21T10:18:02;24.70;;;14.20;;
72325;SDS011;60278;47.980;18.780;2023-11-21T10:21:05;21.60;;;11.40;;
72325;SDS011;60278;47.980;18.780;2023-11-21T10:24:08;16.58;;;8.27;;
72325;SDS011;60278;47.980;18.780;2023-11-21T10:27:10;15.82;;;8.38;;
72325;SDS011;60278;47.980;18.780;2023-11-21T10:30:12;13.27;;;8.43;;
72325;SDS011;60278;47.980;18.780;2023-11-21T10:33:14;13.17;;;8.33;;
72325;SDS011;60278;47.980;18.780;2023-11-21T10:36:24;11.97;;;8.23;;
72325;SDS011;60278;47.980;18.780;2023-11-21T10:39:26;12.10;;;6.40;;
72325;SDS011;60278;47.980;18.780;2023-11-21T10:42:32;14.32;;;7.15;;
72325;SDS011;60278;47.980;18.780;2023-11-21T10:45:36;12.93;;;6.97;;
72325;SDS011;60278;47.980;18.780;2023-11-21T10:48:41;9.30;;;5.30;;
72325;SDS011;60278;47.980;18.780;2023-11-21T10:51:43;8.97;;;5.30;;
72325;SDS011;60278;47.980;18.780;2023-11-21T10:54:46;9.20;;;5.28;;
72325;SDS011;60278;47.980;18.780;2023-11-21T10:57:48;11.23;;;5.65;;
72325;SDS011;60278;47.980;18.780;2023-11-21T11:00:51;11.38;;;6.97;;
72325;SDS011;60278;47.980;18.780;2023-11-21T11:03:53;13.57;;;5.87;;
72325;SDS011;60278;47.980;18.780;2023-11-21T11:06:57;10.90;;;5.27;;
72325;SDS011;60278;47.980;18.780;2023-11-21T11:09:59;11.30;;;6.10;;
72325;SDS011;60278;47.980;18.780;2023-11-21T11:13:02;12.93;;;9.05;;
72325;SDS011;60278;47.980;18.780;2023-11-21T11:16:04;10.10;;;5.35;;
72325;SDS011;60278;47.980;18.780;2023-11-21T11:19:09;10.33;;;5.63;;
72325;SDS011;60278;47.980;18.780;2023-11-21T11:25:45;11.30;;;4.85;;
72325;SDS011;60278;47.980;18.780;2023-11-21T11:32:12;8.52;;;5.22;;
72325;SDS011;60278;47.980;18.780;2023-11-21T11:35:38;10.73;;;5.20;;
72325;SDS011;60278;47.980;18.780;2023-11-21T11:38:46;10.60;;;5.10;;
72325;SDS011;60278;47.980;18.780;2023-11-21T11:41:48;9.40;;;5.35;;
72325;SDS011;60278;47.980;18.780;2023-11-21T11:44:52;11.25;;;5.30;;
72325;SDS011;60278;47.980;18.780;2023-11-21T11:47:56;10.15;;;6.28;;
72325;SDS011;60278;47.980;18.780;2023-11-21T11:54:05;10.87;;;5.87;;
72325;SDS011;60278;47.980;18.780;2023-11-21T11:57:08;14.25;;;8.32;;
72325;SDS011;60278;47.980;18.780;2023-11-21T12:00:18;32.58;;;13.55;;
72325;SDS011;60278;47.980;18.780;2023-11-21T12:03:27;49.13;;;21.50;;
72325;SDS011;60278;47.980;18.780;2023-11-21T12:06:33;80.00;;;30.60;;
72325;SDS011;60278;47.980;18.780;2023-11-21T12:09:36;33.03;;;15.13;;
72325;SDS011;60278;47.980;18.780;2023-11-21T12:12:41;17.35;;;8.68;;
72325;SDS011;60278;47.980;18.780;2023-11-21T12:15:43;19.10;;;10.27;;
72325;SDS011;60278;47.980;18.780;2023-11-21T12:18:48;177.98;;;61.35;;
72325;SDS011;60278;47.980;18.780;2023-11-21T12:21:50;21.77;;;10.07;;
72325;SDS011;60278;47.980;18.780;2023-11-21T12:24:53;13.17;;;6.63;;
72325;SDS011;60278;47.980;18.780;2023-11-21T12:27:56;13.27;;;7.28;;
72325;SDS011;60278;47.980;18.780;2023-11-21T12:30:59;14.38;;;7.22;;
72325;SDS011;60278;47.980;18.780;2023-11-21T12:34:16;25.35;;;11.32;;
72325;SDS011;60278;47.980;18.780;2023-11-21T12:37:18;16.47;;;9.50;;
72325;SDS011;60278;47.980;18.780;2023-11-21T12:40:20;16.03;;;8.37;;
72325;SDS011;60278;47.980;18.780;2023-11-21T12:43:25;29.30;;;15.95;;
72325;SDS011;60278;47.980;18.780;2023-11-21T12:46:27;12.80;;;6.50;;
72325;SDS011;60278;47.980;18.780;2023-11-21T12:49:31;15.93;;;9.52;;
72325;SDS011;60278;47.980;18.780;2023-11-21T12:52:37;43.00;;;23.70;;
72325;SDS011;60278;47.980;18.780;2023-11-21T12:55:41;17.27;;;9.80;;
72325;SDS011;60278;47.980;18.780;2023-11-21T12:58:44;27.55;;;16.92;;
72325;SDS011;60278;47.980;18.780;2023-11-21T13:01:49;15.18;;;8.20;;
72325;SDS011;60278;47.980;18.780;2023-11-21T13:04:53;11.05;;;6.45;;
72325;SDS011;60278;47.980;18.780;2023-11-21T13:07:59;14.63;;;6.30;;
72325;SDS011;60278;47.980;18.780;2023-11-21T13:11:04;12.33;;;5.97;;
72325;SDS011;60278;47.980;18.780;2023-11-21T13:14:08;9.95;;;5.65;;
72325;SDS011;60278;47.980;18.780;2023-11-21T13:17:13;17.13;;;10.55;;
72325;SDS011;60278;47.980;18.780;2023-11-21T13:20:15;16.80;;;9.57;;
72325;SDS011;60278;47.980;18.780;2023-11-21T13:23:22;10.10;;;6.10;;
72325;SDS011;60278;47.980;18.780;2023-11-21T13:26:24;9.60;;;5.33;;
72325;SDS011;60278;47.980;18.780;2023-11-21T13:29:27;7.78;;;5.32;;
72325;SDS011;60278;47.980;18.780;2023-11-21T13:32:31;21.35;;;12.90;;
72325;SDS011;60278;47.980;18.780;2023-11-21T13:35:35;14.45;;;7.65;;
72325;SDS011;60278;47.980;18.780;2023-11-21T13:38:39;14.90;;;8.13;;
72325;SDS011;60278;47.980;18.780;2023-11-21T13:41:45;14.20;;;6.90;;
72325;SDS011;60278;47.980;18.780;2023-11-21T13:44:55;10.63;;;6.45;;
72325;SDS011;60278;47.980;18.780;2023-11-21T13:47:57;11.02;;;6.80;;
72325;SDS011;60278;47.980;18.780;2023-11-21T13:51:00;16.50;;;8.02;;
72325;SDS011;60278;47.980;18.780;2023-11-21T13:54:22;20.73;;;11.57;;
72325;SDS011;60278;47.980;18.780;2023-11-21T13:57:27;19.90;;;12.97;;
72325;SDS011;60278;47.980;18.780;2023-11-21T14:00:30;16.20;;;9.57;;
72325;SDS011;60278;47.980;18.780;2023-11-21T14:03:59;13.95;;;8.63;;
72325;SDS011;60278;47.980;18.780;2023-11-21T14:07:21;27.52;;;15.10;;
72325;SDS011;60278;47.980;18.780;2023-11-21T14:10:49;45.63;;;23.97;;
72325;SDS011;60278;47.980;18.780;2023-11-21T14:13:55;50.17;;;23.60;;
72325;SDS011;60278;47.980;18.780;2023-11-21T14:16:57;51.42;;;25.05;;
72325;SDS011;60278;47.980;18.780;2023-11-21T14:20:01;49.33;;;24.00;;
72325;SDS011;60278;47.980;18.780;2023-11-21T14:23:07;46.95;;;26.23;;
72325;SDS011;60278;47.980;18.780;2023-11-21T14:26:09;64.60;;;31.60;;
72325;SDS011;60278;47.980;18.780;2023-11-21T14:29:15;75.30;;;37.03;;
72325;SDS011;60278;47.980;18.780;2023-11-21T14:32:21;233.70;;;93.57;;
72325;SDS011;60278;47.980;18.780;2023-11-21T14:35:24;39.97;;;19.77;;
72325;SDS011;60278;47.980;18.780;2023-11-21T14:38:26;19.88;;;10.95;;
72325;SDS011;60278;47.980;18.780;2023-11-21T14:41:29;16.73;;;9.67;;
72325;SDS011;60278;47.980;18.780;2023-11-21T14:44:32;59.80;;;26.83;;
72325;SDS011;60278;47.980;18.780;2023-11-21T14:47:40;44.20;;;22.63;;
72325;SDS011;60278;47.980;18.780;2023-11-21T14:50:48;22.00;;;12.73;;
72325;SDS011;60278;47.980;18.780;2023-11-21T14:54:10;25.85;;;14.60;;
72325;SDS011;60278;47.980;18.780;2023-11-21T14:57:13;24.50;;;15.03;;
72325;SDS011;60278;47.980;18.780;2023-11-21T15:00:20;28.17;;;17.20;;
72325;SDS011;60278;47.980;18.780;2023-11-21T15:03:37;31.95;;;16.92;;
72325;SDS011;60278;47.980;18.780;2023-11-21T15:06:45;33.47;;;17.45;;
72325;SDS011;60278;47.980;18.780;2023-11-21T15:09:48;34.83;;;20.50;;
72325;SDS011;60278;47.980;18.780;2023-11-21T15:12:52;32.90;;;22.17;;
72325;SDS011;60278;47.980;18.780;2023-11-21T15:15:54;76.73;;;36.97;;
72325;SDS011;60278;47.980;18.780;2023-11-21T15:18:56;67.90;;;38.75;;
72325;SDS011;60278;47.980;18.780;2023-11-21T15:21:58;66.85;;;31.90;;
72325;SDS011;60278;47.980;18.780;2023-11-21T15:25:00;64.22;;;33.95;;
72325;SDS011;60278;47.980;18.780;2023-11-21T15:28:11;68.13;;;38.20;;
72325;SDS011;60278;47.980;18.780;2023-11-21T15:31:13;109.57;;;57.70;;
72325;SDS011;60278;47.980;18.780;2023-11-21T15:34:18;119.82;;;66.53;;
72325;SDS011;60278;47.980;18.780;2023-11-21T15:37:20;147.15;;;75.63;;
72325;SDS011;60278;47.980;18.780;2023-11-21T15:40:23;108.90;;;56.22;;
72325;SDS011;60278;47.980;18.780;2023-11-21T15:43:25;103.10;;;56.10;;
72325;SDS011;60278;47.980;18.780;2023-11-21T15:46:28;131.70;;;72.73;;
72325;SDS011;60278;47.980;18.780;2023-11-21T15:49:33;91.13;;;48.88;;
72325;SDS011;60278;47.980;18.780;2023-11-21T15:52:39;84.72;;;44.80;;
72325;SDS011;60278;47.980;18.780;2023-11-21T15:55:58;84.45;;;45.08;;
72325;SDS011;60278;47.980;18.780;2023-11-21T15:59:01;47.40;;;28.17;;
72325;SDS011;60278;47.980;18.780;2023-11-21T16:02:03;41.83;;;26.13;;
72325;SDS011;60278;47.980;18.780;2023-11-21T16:05:09;24.52;;;11.82;;
72325;SDS011;60278;47.980;18.780;2023-11-21T16:08:11;15.98;;;9.70;;
72325;SDS011;60278;47.980;18.780;2023-11-21T16:11:14;34.92;;;22.52;;
72325;SDS011;60278;47.980;18.780;2023-11-21T16:14:17;28.60;;;19.37;;
72325;SDS011;60278;47.980;18.780;2023-11-21T16:17:21;27.97;;;21.67;;
72325;SDS011;60278;47.980;18.780;2023-11-21T16:20:23;21.90;;;14.98;;
72325;SDS011;60278;47.980;18.780;2023-11-21T16:23:27;40.42;;;31.05;;
72325;SDS011;60278;47.980;18.780;2023-11-21T16:26:30;58.88;;;33.88;;
72325;SDS011;60278;47.980;18.780;2023-11-21T16:29:33;45.03;;;29.93;;
72325;SDS011;60278;47.980;18.780;2023-11-21T16:32:35;56.47;;;33.60;;
72325;SDS011;60278;47.980;18.780;2023-11-21T16:35:38;44.78;;;29.20;;
72325;SDS011;60278;47.980;18.780;2023-11-21T16:38:43;36.00;;;21.75;;
72325;SDS011;60278;47.980;18.780;2023-11-21T16:41:45;52.15;;;33.35;;
72325;SDS011;60278;47.980;18.780;2023-11-21T16:44:49;73.60;;;43.87;;
72325;SDS011;60278;47.980;18.780;2023-11-21T16:47:51;76.60;;;46.83;;
72325;SDS011;60278;47.980;18.780;2023-11-21T16:50:53;110.60;;;66.15;;
72325;SDS011;60278;47.980;18.780;2023-11-21T16:53:56;94.72;;;55.75;;
72325;SDS011;60278;47.980;18.780;2023-11-21T16:56:58;114.53;;;63.58;;
72325;SDS011;60278;47.980;18.780;2023-11-21T17:00:00;138.07;;;74.37;;
72325;SDS011;60278;47.980;18.780;2023-11-21T17:03:02;122.90;;;71.53;;
72325;SDS011;60278;47.980;18.780;2023-11-21T17:06:04;143.63;;;77.47;;
72325;SDS011;60278;47.980;18.780;2023-11-21T17:09:07;105.55;;;62.33;;
72325;SDS011;60278;47.980;18.780;2023-11-21T17:12:11;122.13;;;59.08;;
72325;SDS011;60278;47.980;18.780;2023-11-21T17:15:14;120.87;;;57.87;;
72325;SDS011;60278;47.980;18.780;2023-11-21T17:18:16;134.67;;;66.10;;
72325;SDS011;60278;47.980;18.780;2023-11-21T17:21:18;115.80;;;62.85;;
72325;SDS011;60278;47.980;18.780;2023-11-21T17:24:30;120.88;;;65.70;;
72325;SDS011;60278;47.980;18.780;2023-11-21T17:27:34;136.02;;;80.18;;
72325;SDS011;60278;47.980;18.780;2023-11-21T17:30:37;131.93;;;71.93;;
72325;SDS011;60278;47.980;18.780;2023-11-21T17:33:40;105.33;;;59.17;;
72325;SDS011;60278;47.980;18.780;2023-11-21T17:36:43;122.05;;;72.35;;
72325;SDS011;60278;47.980;18.780;2023-11-21T17:39:45;138.52;;;76.03;;
72325;SDS011;60278;47.980;18.780;2023-11-21T17:42:48;109.22;;;62.00;;
72325;SDS011;60278;47.980;18.780;2023-11-21T17:45:51;100.13;;;57.00;;
72325;SDS011;60278;47.980;18.780;2023-11-21T17:48:53;77.90;;;46.37;;
72325;SDS011;60278;47.980;18.780;2023-11-21T17:51:56;75.45;;;43.08;;
72325;SDS011;60278;47.980;18.780;2023-11-21T17:54:58;98.35;;;54.00;;